Henderson, Illinois
Current Conditions -  °F | °C
As of 11:35 AM on Saturday 25 Oct 2014 (Local Time) from KGBG Reporting Station
Clear Clear  
Wind Chill: 67°   Ceiling: Unl
Heat Index: 67°   Visibility: 10mi
Dew Point: 50°   Wind: 8mph
Humidity: 54%   Direction: 330°NNW
Pressure: 30.04"   Gusts: NA
Location:  41.03°N, 90.36°W
Report Text: KGBG 251635Z AUTO 33007KT 10SM CLR 20/10 A3004 RMK AO2 T01950099
Loading
Personal Weather Stations






























Interactive Weather Map
Tropical Storm Tracking
New forecast layout! Learn more

10-Day Weather Forecast

Advertisements
Track Severe Weather on mobile